sensor_id;sensor_type;location;lat;lon;timestamp;temperature;humidity
68139;DHT22;54940;50.842;4.410;2022-08-18T00:00:06;21.20;99.90
68139;DHT22;54940;50.842;4.410;2022-08-18T00:02:37;21.10;99.90
68139;DHT22;54940;50.842;4.410;2022-08-18T00:05:04;21.10;99.90
68139;DHT22;54940;50.842;4.410;2022-08-18T00:07:31;21.20;99.90
68139;DHT22;54940;50.842;4.410;2022-08-18T00:09:58;21.20;99.90
68139;DHT22;54940;50.842;4.410;2022-08-18T00:12:31;21.20;99.90
68139;DHT22;54940;50.842;4.410;2022-08-18T00:14:58;21.20;99.90
68139;DHT22;54940;50.842;4.410;2022-08-18T00:17:30;21.20;99.90
68139;DHT22;54940;50.842;4.410;2022-08-18T00:19:56;21.20;99.90
68139;DHT22;54940;50.842;4.410;2022-08-18T00:22:22;21.20;99.90
68139;DHT22;54940;50.842;4.410;2022-08-18T00:24:50;21.20;99.90
68139;DHT22;54940;50.842;4.410;2022-08-18T00:27:19;21.10;99.90
68139;DHT22;54940;50.842;4.410;2022-08-18T00:29:46;21.00;99.90
68139;DHT22;54940;50.842;4.410;2022-08-18T00:32:14;21.10;99.90
68139;DHT22;54940;50.842;4.410;2022-08-18T00:34:40;21.10;99.90
68139;DHT22;54940;50.842;4.410;2022-08-18T00:37:06;21.10;99.90
68139;DHT22;54940;50.842;4.410;2022-08-18T00:39:32;21.00;99.90
68139;DHT22;54940;50.842;4.410;2022-08-18T00:41:59;21.00;99.90
68139;DHT22;54940;50.842;4.410;2022-08-18T00:44:24;21.00;99.90
68139;DHT22;54940;50.842;4.410;2022-08-18T00:46:50;21.10;99.90
68139;DHT22;54940;50.842;4.410;2022-08-18T00:49:16;21.00;99.90
68139;DHT22;54940;50.842;4.410;2022-08-18T00:51:46;21.00;99.90
68139;DHT22;54940;50.842;4.410;2022-08-18T00:54:23;21.00;99.90
68139;DHT22;54940;50.842;4.410;2022-08-18T00:56:52;20.90;99.90
68139;DHT22;54940;50.842;4.410;2022-08-18T00:59:36;21.00;99.90
68139;DHT22;54940;50.842;4.410;2022-08-18T01:02:10;20.90;99.90
68139;DHT22;54940;50.842;4.410;2022-08-18T01:04:54;20.90;99.90
68139;DHT22;54940;50.842;4.410;2022-08-18T01:07:27;20.90;99.90
68139;DHT22;54940;50.842;4.410;2022-08-18T01:09:55;20.90;99.90
68139;DHT22;54940;50.842;4.410;2022-08-18T01:12:25;21.00;99.90
68139;DHT22;54940;50.842;4.410;2022-08-18T01:14:51;20.90;99.90
68139;DHT22;54940;50.842;4.410;2022-08-18T01:17:17;20.90;99.90
68139;DHT22;54940;50.842;4.410;2022-08-18T01:20:02;20.90;99.90
68139;DHT22;54940;50.842;4.410;2022-08-18T01:25:17;20.90;99.90
68139;DHT22;54940;50.842;4.410;2022-08-18T01:28:03;20.80;99.90
68139;DHT22;54940;50.842;4.410;2022-08-18T01:30:31;20.90;99.90
68139;DHT22;54940;50.842;4.410;2022-08-18T01:32:59;20.90;99.90
68139;DHT22;54940;50.842;4.410;2022-08-18T01:35:26;20.90;99.90
68139;DHT22;54940;50.842;4.410;2022-08-18T01:37:53;21.00;99.90
68139;DHT22;54940;50.842;4.410;2022-08-18T01:40:21;21.00;99.90
68139;DHT22;54940;50.842;4.410;2022-08-18T01:42:48;21.00;99.90
68139;DHT22;54940;50.842;4.410;2022-08-18T01:45:16;21.10;99.90
68139;DHT22;54940;50.842;4.410;2022-08-18T01:47:43;21.00;99.90
68139;DHT22;54940;50.842;4.410;2022-08-18T01:50:09;21.00;99.90
68139;DHT22;54940;50.842;4.410;2022-08-18T01:52:38;21.10;99.90
68139;DHT22;54940;50.842;4.410;2022-08-18T01:55:05;21.10;99.90
68139;DHT22;54940;50.842;4.410;2022-08-18T01:57:35;21.10;99.90
68139;DHT22;54940;50.842;4.410;2022-08-18T02:00:04;21.10;99.90
68139;DHT22;54940;50.842;4.410;2022-08-18T02:02:32;21.00;99.90
68139;DHT22;54940;50.842;4.410;2022-08-18T02:05:02;21.00;99.90
68139;DHT22;54940;50.842;4.410;2022-08-18T02:07:28;21.00;99.90
68139;DHT22;54940;50.842;4.410;2022-08-18T02:09:54;21.00;99.90
68139;DHT22;54940;50.842;4.410;2022-08-18T02:12:19;21.00;99.90
68139;DHT22;54940;50.842;4.410;2022-08-18T02:14:45;21.10;99.90
68139;DHT22;54940;50.842;4.410;2022-08-18T02:17:12;21.10;99.90
68139;DHT22;54940;50.842;4.410;2022-08-18T02:19:44;21.10;99.90
68139;DHT22;54940;50.842;4.410;2022-08-18T02:22:13;21.00;99.90
68139;DHT22;54940;50.842;4.410;2022-08-18T02:24:39;21.00;99.90
68139;DHT22;54940;50.842;4.410;2022-08-18T02:27:06;21.00;99.90
68139;DHT22;54940;50.842;4.410;2022-08-18T02:29:33;21.00;99.90
68139;DHT22;54940;50.842;4.410;2022-08-18T02:31:59;21.00;99.90
68139;DHT22;54940;50.842;4.410;2022-08-18T02:34:24;21.00;99.90
68139;DHT22;54940;50.842;4.410;2022-08-18T02:36:50;20.90;99.90
68139;DHT22;54940;50.842;4.410;2022-08-18T02:39:16;20.90;99.90
68139;DHT22;54940;50.842;4.410;2022-08-18T02:41:42;20.90;99.90
68139;DHT22;54940;50.842;4.410;2022-08-18T02:44:08;21.00;99.90
68139;DHT22;54940;50.842;4.410;2022-08-18T02:46:35;21.00;99.90
68139;DHT22;54940;50.842;4.410;2022-08-18T02:49:01;21.00;99.90
68139;DHT22;54940;50.842;4.410;2022-08-18T02:51:27;21.00;99.90
68139;DHT22;54940;50.842;4.410;2022-08-18T02:53:54;21.00;99.90
68139;DHT22;54940;50.842;4.410;2022-08-18T02:56:27;21.00;99.90
68139;DHT22;54940;50.842;4.410;2022-08-18T02:58:55;21.00;99.90
68139;DHT22;54940;50.842;4.410;2022-08-18T03:01:27;21.00;99.90
68139;DHT22;54940;50.842;4.410;2022-08-18T03:03:54;20.90;99.90
68139;DHT22;54940;50.842;4.410;2022-08-18T03:06:21;21.00;99.90
68139;DHT22;54940;50.842;4.410;2022-08-18T03:08:47;21.00;99.90
68139;DHT22;54940;50.842;4.410;2022-08-18T03:11:23;21.00;99.90
68139;DHT22;54940;50.842;4.410;2022-08-18T03:13:49;20.90;99.90
68139;DHT22;54940;50.842;4.410;2022-08-18T03:16:16;20.80;99.90
68139;DHT22;54940;50.842;4.410;2022-08-18T03:18:43;20.90;99.90
68139;DHT22;54940;50.842;4.410;2022-08-18T03:21:11;20.80;99.90
68139;DHT22;54940;50.842;4.410;2022-08-18T03:23:38;20.90;99.90
68139;DHT22;54940;50.842;4.410;2022-08-18T03:26:06;21.00;99.90
68139;DHT22;54940;50.842;4.410;2022-08-18T03:28:33;20.90;99.90
68139;DHT22;54940;50.842;4.410;2022-08-18T03:30:59;20.90;99.90
68139;DHT22;54940;50.842;4.410;2022-08-18T03:33:25;21.00;99.90
68139;DHT22;54940;50.842;4.410;2022-08-18T03:35:50;20.90;99.90
68139;DHT22;54940;50.842;4.410;2022-08-18T03:38:16;20.90;99.90
68139;DHT22;54940;50.842;4.410;2022-08-18T03:40:42;20.80;99.90
68139;DHT22;54940;50.842;4.410;2022-08-18T03:43:08;20.80;99.90
68139;DHT22;54940;50.842;4.410;2022-08-18T03:45:34;20.80;99.90
68139;DHT22;54940;50.842;4.410;2022-08-18T03:48:00;20.60;99.90
68139;DHT22;54940;50.842;4.410;2022-08-18T03:50:27;20.50;99.90
68139;DHT22;54940;50.842;4.410;2022-08-18T03:52:54;20.50;99.90
68139;DHT22;54940;50.842;4.410;2022-08-18T03:55:20;20.50;99.90
68139;DHT22;54940;50.842;4.410;2022-08-18T03:57:45;20.60;99.90
68139;DHT22;54940;50.842;4.410;2022-08-18T04:00:12;20.60;99.90
68139;DHT22;54940;50.842;4.410;2022-08-18T04:02:38;20.60;99.90
68139;DHT22;54940;50.842;4.410;2022-08-18T04:05:05;20.70;99.90
68139;DHT22;54940;50.842;4.410;2022-08-18T04:07:31;20.60;99.90
68139;DHT22;54940;50.842;4.410;2022-08-18T04:09:57;20.60;99.90
68139;DHT22;54940;50.842;4.410;2022-08-18T04:12:23;20.60;99.90
68139;DHT22;54940;50.842;4.410;2022-08-18T04:14:49;20.60;99.90
68139;DHT22;54940;50.842;4.410;2022-08-18T04:17:19;20.60;99.90
68139;DHT22;54940;50.842;4.410;2022-08-18T04:19:53;20.50;99.90
68139;DHT22;54940;50.842;4.410;2022-08-18T04:22:19;20.50;99.90
68139;DHT22;54940;50.842;4.410;2022-08-18T04:24:44;20.60;99.90
68139;DHT22;54940;50.842;4.410;2022-08-18T04:27:11;20.60;99.90
68139;DHT22;54940;50.842;4.410;2022-08-18T04:29:37;20.60;99.90
68139;DHT22;54940;50.842;4.410;2022-08-18T04:32:03;20.70;99.90
68139;DHT22;54940;50.842;4.410;2022-08-18T04:34:29;20.70;99.90
68139;DHT22;54940;50.842;4.410;2022-08-18T04:36:55;20.70;99.90
68139;DHT22;54940;50.842;4.410;2022-08-18T04:39:21;20.60;99.90
68139;DHT22;54940;50.842;4.410;2022-08-18T04:41:48;20.70;99.90
68139;DHT22;54940;50.842;4.410;2022-08-18T04:44:14;20.70;99.90
68139;DHT22;54940;50.842;4.410;2022-08-18T04:46:44;20.70;99.90
68139;DHT22;54940;50.842;4.410;2022-08-18T04:49:12;20.80;99.90
68139;DHT22;54940;50.842;4.410;2022-08-18T04:51:46;20.90;99.90
68139;DHT22;54940;50.842;4.410;2022-08-18T04:54:36;20.90;99.90
68139;DHT22;54940;50.842;4.410;2022-08-18T04:57:12;20.80;99.90
68139;DHT22;54940;50.842;4.410;2022-08-18T04:59:39;20.80;99.90
68139;DHT22;54940;50.842;4.410;2022-08-18T05:02:06;20.90;99.90
68139;DHT22;54940;50.842;4.410;2022-08-18T05:04:34;20.90;99.90
68139;DHT22;54940;50.842;4.410;2022-08-18T05:07:03;20.90;99.90
68139;DHT22;54940;50.842;4.410;2022-08-18T05:09:29;20.90;99.90
68139;DHT22;54940;50.842;4.410;2022-08-18T05:11:55;20.90;99.90
68139;DHT22;54940;50.842;4.410;2022-08-18T05:14:20;20.80;99.90
68139;DHT22;54940;50.842;4.410;2022-08-18T05:16:46;20.80;99.90
68139;DHT22;54940;50.842;4.410;2022-08-18T05:19:13;20.80;99.90
68139;DHT22;54940;50.842;4.410;2022-08-18T05:21:39;20.90;99.90
68139;DHT22;54940;50.842;4.410;2022-08-18T05:24:09;20.90;99.90
68139;DHT22;54940;50.842;4.410;2022-08-18T05:26:36;20.90;99.90
68139;DHT22;54940;50.842;4.410;2022-08-18T05:29:02;21.00;99.90
68139;DHT22;54940;50.842;4.410;2022-08-18T05:31:28;21.00;99.90
68139;DHT22;54940;50.842;4.410;2022-08-18T05:33:55;21.00;99.90
68139;DHT22;54940;50.842;4.410;2022-08-18T05:41:56;21.00;99.90
68139;DHT22;54940;50.842;4.410;2022-08-18T05:44:27;21.00;99.90
68139;DHT22;54940;50.842;4.410;2022-08-18T05:47:27;21.00;99.90
68139;DHT22;54940;50.842;4.410;2022-08-18T05:49:52;21.00;99.90
68139;DHT22;54940;50.842;4.410;2022-08-18T05:55:06;20.90;99.90
68139;DHT22;54940;50.842;4.410;2022-08-18T05:58:02;21.10;99.90
68139;DHT22;54940;50.842;4.410;2022-08-18T06:00:31;21.10;99.90
68139;DHT22;54940;50.842;4.410;2022-08-18T06:03:11;21.20;99.90
68139;DHT22;54940;50.842;4.410;2022-08-18T06:05:54;21.20;99.90
68139;DHT22;54940;50.842;4.410;2022-08-18T06:08:26;21.10;99.90
68139;DHT22;54940;50.842;4.410;2022-08-18T06:10:52;21.20;99.90
68139;DHT22;54940;50.842;4.410;2022-08-18T06:13:19;21.20;99.90
68139;DHT22;54940;50.842;4.410;2022-08-18T06:16:13;21.30;99.90
68139;DHT22;54940;50.842;4.410;2022-08-18T06:18:46;21.50;99.90
68139;DHT22;54940;50.842;4.410;2022-08-18T06:29:42;22.30;99.90
68139;DHT22;54940;50.842;4.410;2022-08-18T06:32:54;22.80;99.90
68139;DHT22;54940;50.842;4.410;2022-08-18T06:35:46;23.30;99.90
68139;DHT22;54940;50.842;4.410;2022-08-18T06:41:14;23.70;99.90
68139;DHT22;54940;50.842;4.410;2022-08-18T06:44:03;23.80;99.90
68139;DHT22;54940;50.842;4.410;2022-08-18T06:46:45;23.70;99.90
68139;DHT22;54940;50.842;4.410;2022-08-18T06:52:25;23.50;99.90
68139;DHT22;54940;50.842;4.410;2022-08-18T06:54:53;23.30;99.90
68139;DHT22;54940;50.842;4.410;2022-08-18T06:57:28;23.00;99.90
68139;DHT22;54940;50.842;4.410;2022-08-18T06:59:57;22.80;99.90
68139;DHT22;54940;50.842;4.410;2022-08-18T07:02:41;22.60;99.90
68139;DHT22;54940;50.842;4.410;2022-08-18T07:05:16;22.50;99.90
68139;DHT22;54940;50.842;4.410;2022-08-18T07:07:44;22.30;99.90
68139;DHT22;54940;50.842;4.410;2022-08-18T07:12:38;21.90;99.90
68139;DHT22;54940;50.842;4.410;2022-08-18T07:15:04;22.00;99.90
68139;DHT22;54940;50.842;4.410;2022-08-18T07:17:34;21.90;99.90
68139;DHT22;54940;50.842;4.410;2022-08-18T07:20:18;21.80;99.90
68139;DHT22;54940;50.842;4.410;2022-08-18T07:25:30;21.90;99.90
68139;DHT22;54940;50.842;4.410;2022-08-18T07:27:56;22.00;99.90
68139;DHT22;54940;50.842;4.410;2022-08-18T07:30:33;22.10;99.90
68139;DHT22;54940;50.842;4.410;2022-08-18T07:33:08;22.10;99.90
68139;DHT22;54940;50.842;4.410;2022-08-18T07:35:42;21.90;99.90
68139;DHT22;54940;50.842;4.410;2022-08-18T07:40:59;22.60;99.90
68139;DHT22;54940;50.842;4.410;2022-08-18T07:46:37;22.90;99.90
68139;DHT22;54940;50.842;4.410;2022-08-18T07:49:08;23.10;99.90
68139;DHT22;54940;50.842;4.410;2022-08-18T07:57:17;23.30;99.90
68139;DHT22;54940;50.842;4.410;2022-08-18T08:08:22;24.00;99.90
68139;DHT22;54940;50.842;4.410;2022-08-18T08:22:07;25.80;98.60
68139;DHT22;54940;50.842;4.410;2022-08-18T08:27:20;26.90;97.20
68139;DHT22;54940;50.842;4.410;2022-08-18T08:29:58;27.00;93.70
68139;DHT22;54940;50.842;4.410;2022-08-18T08:32:35;27.20;95.70
68139;DHT22;54940;50.842;4.410;2022-08-18T08:35:06;27.30;94.50
68139;DHT22;54940;50.842;4.410;2022-08-18T08:40:10;27.60;93.50
68139;DHT22;54940;50.842;4.410;2022-08-18T08:42:39;27.30;92.70
68139;DHT22;54940;50.842;4.410;2022-08-18T08:45:09;27.40;93.50
68139;DHT22;54940;50.842;4.410;2022-08-18T08:50:31;27.90;90.70
68139;DHT22;54940;50.842;4.410;2022-08-18T08:53:20;28.10;93.90
68139;DHT22;54940;50.842;4.410;2022-08-18T08:55:50;28.00;90.70
68139;DHT22;54940;50.842;4.410;2022-08-18T09:01:33;27.90;91.50
68139;DHT22;54940;50.842;4.410;2022-08-18T09:04:20;27.90;91.90
68139;DHT22;54940;50.842;4.410;2022-08-18T09:23:47;28.10;90.70
68139;DHT22;54940;50.842;4.410;2022-08-18T09:29:19;28.40;91.70
68139;DHT22;54940;50.842;4.410;2022-08-18T09:32:37;28.60;90.70
68139;DHT22;54940;50.842;4.410;2022-08-18T09:37:26;28.70;89.70
68139;DHT22;54940;50.842;4.410;2022-08-18T09:40:09;28.60;90.50
68139;DHT22;54940;50.842;4.410;2022-08-18T09:45:55;29.00;85.80
68139;DHT22;54940;50.842;4.410;2022-08-18T09:56:16;28.60;89.00
68139;DHT22;54940;50.842;4.410;2022-08-18T09:58:57;28.60;86.20
68139;DHT22;54940;50.842;4.410;2022-08-18T10:06:47;27.70;86.80
68139;DHT22;54940;50.842;4.410;2022-08-18T10:12:02;27.70;89.90
68139;DHT22;54940;50.842;4.410;2022-08-18T10:17:31;27.80;88.10
68139;DHT22;54940;50.842;4.410;2022-08-18T10:20:24;28.00;87.30
68139;DHT22;54940;50.842;4.410;2022-08-18T10:22:52;28.40;90.30
68139;DHT22;54940;50.842;4.410;2022-08-18T10:25:40;28.70;85.90
68139;DHT22;54940;50.842;4.410;2022-08-18T10:28:09;28.70;88.10
68139;DHT22;54940;50.842;4.410;2022-08-18T10:33:03;28.40;82.80
68139;DHT22;54940;50.842;4.410;2022-08-18T10:41:12;28.00;86.90
68139;DHT22;54940;50.842;4.410;2022-08-18T10:43:43;27.90;87.10
68139;DHT22;54940;50.842;4.410;2022-08-18T10:46:33;27.70;85.80
68139;DHT22;54940;50.842;4.410;2022-08-18T10:49:14;27.40;87.60
68139;DHT22;54940;50.842;4.410;2022-08-18T10:54:39;27.10;90.10
68139;DHT22;54940;50.842;4.410;2022-08-18T10:57:16;27.30;90.80
68139;DHT22;54940;50.842;4.410;2022-08-18T11:05:23;28.10;82.00
68139;DHT22;54940;50.842;4.410;2022-08-18T11:07:56;27.90;87.30
68139;DHT22;54940;50.842;4.410;2022-08-18T11:10:36;28.00;90.30
68139;DHT22;54940;50.842;4.410;2022-08-18T11:18:45;27.80;88.60
68139;DHT22;54940;50.842;4.410;2022-08-18T11:27:03;28.00;83.90
68139;DHT22;54940;50.842;4.410;2022-08-18T11:29:30;27.70;82.60
68139;DHT22;54940;50.842;4.410;2022-08-18T11:34:52;27.80;76.20
68139;DHT22;54940;50.842;4.410;2022-08-18T11:42:58;27.30;82.30
68139;DHT22;54940;50.842;4.410;2022-08-18T11:45:31;27.10;83.70
68139;DHT22;54940;50.842;4.410;2022-08-18T11:48:00;27.00;84.00
68139;DHT22;54940;50.842;4.410;2022-08-18T11:50:28;27.00;88.20
68139;DHT22;54940;50.842;4.410;2022-08-18T11:52:55;27.10;87.20
68139;DHT22;54940;50.842;4.410;2022-08-18T11:55:30;27.20;85.80
68139;DHT22;54940;50.842;4.410;2022-08-18T11:57:58;27.20;87.40
68139;DHT22;54940;50.842;4.410;2022-08-18T12:00:52;27.20;87.80
68139;DHT22;54940;50.842;4.410;2022-08-18T12:05:50;28.10;84.70
68139;DHT22;54940;50.842;4.410;2022-08-18T12:08:33;28.20;85.90
68139;DHT22;54940;50.842;4.410;2022-08-18T12:11:29;28.30;81.40
68139;DHT22;54940;50.842;4.410;2022-08-18T12:14:05;28.10;82.30
68139;DHT22;54940;50.842;4.410;2022-08-18T12:16:39;27.80;81.80
68139;DHT22;54940;50.842;4.410;2022-08-18T12:19:08;27.70;82.90
68139;DHT22;54940;50.842;4.410;2022-08-18T12:21:42;27.70;82.60
68139;DHT22;54940;50.842;4.410;2022-08-18T12:24:29;27.90;85.60
68139;DHT22;54940;50.842;4.410;2022-08-18T12:26:57;28.10;83.80
68139;DHT22;54940;50.842;4.410;2022-08-18T12:29:24;28.50;82.60
68139;DHT22;54940;50.842;4.410;2022-08-18T12:31:52;29.00;82.10
68139;DHT22;54940;50.842;4.410;2022-08-18T12:34:21;29.60;79.00
68139;DHT22;54940;50.842;4.410;2022-08-18T12:36:56;30.00;75.30
68139;DHT22;54940;50.842;4.410;2022-08-18T12:39:22;30.20;77.00
68139;DHT22;54940;50.842;4.410;2022-08-18T12:41:48;30.50;77.50
68139;DHT22;54940;50.842;4.410;2022-08-18T12:44:14;30.90;73.20
68139;DHT22;54940;50.842;4.410;2022-08-18T12:46:40;31.40;75.10
68139;DHT22;54940;50.842;4.410;2022-08-18T12:49:13;31.90;73.60
68139;DHT22;54940;50.842;4.410;2022-08-18T12:51:39;32.60;71.60
68139;DHT22;54940;50.842;4.410;2022-08-18T12:54:05;33.20;67.90
68139;DHT22;54940;50.842;4.410;2022-08-18T12:56:31;33.90;68.60
68139;DHT22;54940;50.842;4.410;2022-08-18T12:58:59;34.10;63.80
68139;DHT22;54940;50.842;4.410;2022-08-18T13:01:26;34.20;62.40
68139;DHT22;54940;50.842;4.410;2022-08-18T13:03:52;33.30;64.20
68139;DHT22;54940;50.842;4.410;2022-08-18T13:06:21;32.70;65.40
68139;DHT22;54940;50.842;4.410;2022-08-18T13:08:47;32.50;67.60
68139;DHT22;54940;50.842;4.410;2022-08-18T13:11:13;32.30;63.70
68139;DHT22;54940;50.842;4.410;2022-08-18T13:13:39;32.20;64.00
68139;DHT22;54940;50.842;4.410;2022-08-18T13:16:08;32.10;68.00
68139;DHT22;54940;50.842;4.410;2022-08-18T13:18:35;31.90;69.00
68139;DHT22;54940;50.842;4.410;2022-08-18T13:21:01;31.60;66.60
68139;DHT22;54940;50.842;4.410;2022-08-18T13:23:28;31.60;65.90
68139;DHT22;54940;50.842;4.410;2022-08-18T13:25:56;31.50;68.60
68139;DHT22;54940;50.842;4.410;2022-08-18T13:28:22;31.50;70.70
68139;DHT22;54940;50.842;4.410;2022-08-18T13:30:48;31.70;71.60
68139;DHT22;54940;50.842;4.410;2022-08-18T13:33:16;31.90;71.80
68139;DHT22;54940;50.842;4.410;2022-08-18T13:35:41;32.40;67.70
68139;DHT22;54940;50.842;4.410;2022-08-18T13:38:07;32.60;68.10
68139;DHT22;54940;50.842;4.410;2022-08-18T13:40:33;32.80;65.60
68139;DHT22;54940;50.842;4.410;2022-08-18T13:42:58;32.90;68.20
68139;DHT22;54940;50.842;4.410;2022-08-18T13:45:24;32.70;66.20
68139;DHT22;54940;50.842;4.410;2022-08-18T13:47:50;32.40;65.90
68139;DHT22;54940;50.842;4.410;2022-08-18T13:50:16;32.50;64.60
68139;DHT22;54940;50.842;4.410;2022-08-18T13:52:42;32.90;63.20
68139;DHT22;54940;50.842;4.410;2022-08-18T13:55:12;33.40;63.10
68139;DHT22;54940;50.842;4.410;2022-08-18T13:57:38;33.50;63.30
68139;DHT22;54940;50.842;4.410;2022-08-18T14:00:07;33.60;63.20
68139;DHT22;54940;50.842;4.410;2022-08-18T14:02:37;34.10;62.00
68139;DHT22;54940;50.842;4.410;2022-08-18T14:05:03;34.30;60.20
68139;DHT22;54940;50.842;4.410;2022-08-18T14:07:29;33.90;60.40
68139;DHT22;54940;50.842;4.410;2022-08-18T14:09:56;33.50;60.50
68139;DHT22;54940;50.842;4.410;2022-08-18T14:12:23;33.30;60.80
68139;DHT22;54940;50.842;4.410;2022-08-18T14:14:52;32.90;61.90
68139;DHT22;54940;50.842;4.410;2022-08-18T14:17:20;32.20;62.30
68139;DHT22;54940;50.842;4.410;2022-08-18T14:19:46;32.00;63.80
68139;DHT22;54940;50.842;4.410;2022-08-18T14:22:30;31.70;65.20
68139;DHT22;54940;50.842;4.410;2022-08-18T14:25:14;31.70;65.70
68139;DHT22;54940;50.842;4.410;2022-08-18T14:27:58;31.70;66.70
68139;DHT22;54940;50.842;4.410;2022-08-18T14:30:24;31.70;69.40
68139;DHT22;54940;50.842;4.410;2022-08-18T14:32:50;31.40;67.30
68139;DHT22;54940;50.842;4.410;2022-08-18T14:35:19;31.40;67.60
68139;DHT22;54940;50.842;4.410;2022-08-18T14:37:47;31.20;67.10
68139;DHT22;54940;50.842;4.410;2022-08-18T14:40:12;30.70;67.70
68139;DHT22;54940;50.842;4.410;2022-08-18T14:42:38;30.50;71.10
68139;DHT22;54940;50.842;4.410;2022-08-18T14:45:06;30.20;72.10
68139;DHT22;54940;50.842;4.410;2022-08-18T14:47:32;29.90;71.60
68139;DHT22;54940;50.842;4.410;2022-08-18T14:49:58;29.70;72.80
68139;DHT22;54940;50.842;4.410;2022-08-18T14:52:25;29.70;73.30
68139;DHT22;54940;50.842;4.410;2022-08-18T14:54:52;29.90;72.50
68139;DHT22;54940;50.842;4.410;2022-08-18T14:57:18;29.90;74.80
68139;DHT22;54940;50.842;4.410;2022-08-18T14:59:43;29.90;71.40
68139;DHT22;54940;50.842;4.410;2022-08-18T15:02:10;29.80;73.00
68139;DHT22;54940;50.842;4.410;2022-08-18T15:04:36;29.70;73.80
68139;DHT22;54940;50.842;4.410;2022-08-18T15:07:02;29.60;74.70
68139;DHT22;54940;50.842;4.410;2022-08-18T15:09:28;29.50;73.00
68139;DHT22;54940;50.842;4.410;2022-08-18T15:11:58;29.20;74.90
68139;DHT22;54940;50.842;4.410;2022-08-18T15:14:26;29.30;75.20
68139;DHT22;54940;50.842;4.410;2022-08-18T15:16:52;29.00;75.30
68139;DHT22;54940;50.842;4.410;2022-08-18T15:19:17;28.80;75.80
68139;DHT22;54940;50.842;4.410;2022-08-18T15:21:43;28.90;76.40
68139;DHT22;54940;50.842;4.410;2022-08-18T15:24:27;29.00;75.00
68139;DHT22;54940;50.842;4.410;2022-08-18T15:27:12;28.90;75.60
68139;DHT22;54940;50.842;4.410;2022-08-18T15:29:37;29.10;74.60
68139;DHT22;54940;50.842;4.410;2022-08-18T15:32:03;28.90;73.90
68139;DHT22;54940;50.842;4.410;2022-08-18T15:34:29;29.00;75.10
68139;DHT22;54940;50.842;4.410;2022-08-18T15:36:55;29.10;75.10
68139;DHT22;54940;50.842;4.410;2022-08-18T15:39:22;29.20;74.80
68139;DHT22;54940;50.842;4.410;2022-08-18T15:41:48;29.90;73.60
68139;DHT22;54940;50.842;4.410;2022-08-18T15:44:16;30.20;72.20
68139;DHT22;54940;50.842;4.410;2022-08-18T15:46:42;30.70;71.60
68139;DHT22;54940;50.842;4.410;2022-08-18T15:49:09;31.10;69.80
68139;DHT22;54940;50.842;4.410;2022-08-18T15:51:35;31.20;67.30
68139;DHT22;54940;50.842;4.410;2022-08-18T15:54:02;31.40;68.80
68139;DHT22;54940;50.842;4.410;2022-08-18T15:56:28;31.80;68.90
68139;DHT22;54940;50.842;4.410;2022-08-18T15:58:56;31.90;67.10
68139;DHT22;54940;50.842;4.410;2022-08-18T16:01:23;31.80;67.00
68139;DHT22;54940;50.842;4.410;2022-08-18T16:03:49;31.30;68.10
68139;DHT22;54940;50.842;4.410;2022-08-18T16:06:19;30.90;67.10
68139;DHT22;54940;50.842;4.410;2022-08-18T16:08:46;30.60;69.30
68139;DHT22;54940;50.842;4.410;2022-08-18T16:11:13;30.30;70.70
68139;DHT22;54940;50.842;4.410;2022-08-18T16:13:39;30.00;70.10
68139;DHT22;54940;50.842;4.410;2022-08-18T16:16:18;29.70;71.40
68139;DHT22;54940;50.842;4.410;2022-08-18T16:18:44;29.60;71.90
68139;DHT22;54940;50.842;4.410;2022-08-18T16:21:14;29.20;73.00
68139;DHT22;54940;50.842;4.410;2022-08-18T16:23:43;29.20;73.60
68139;DHT22;54940;50.842;4.410;2022-08-18T16:26:10;29.00;72.70
68139;DHT22;54940;50.842;4.410;2022-08-18T16:28:40;29.00;75.10
68139;DHT22;54940;50.842;4.410;2022-08-18T16:31:07;28.90;73.60
68139;DHT22;54940;50.842;4.410;2022-08-18T16:33:33;28.50;74.90
68139;DHT22;54940;50.842;4.410;2022-08-18T16:36:07;28.50;76.30
68139;DHT22;54940;50.842;4.410;2022-08-18T16:38:35;28.40;75.40
68139;DHT22;54940;50.842;4.410;2022-08-18T16:41:06;28.10;76.30
68139;DHT22;54940;50.842;4.410;2022-08-18T16:43:34;28.00;76.00
68139;DHT22;54940;50.842;4.410;2022-08-18T16:46:00;27.90;78.30
68139;DHT22;54940;50.842;4.410;2022-08-18T16:48:28;28.00;77.70
68139;DHT22;54940;50.842;4.410;2022-08-18T16:50:54;28.00;77.20
68139;DHT22;54940;50.842;4.410;2022-08-18T16:53:19;27.70;78.80
68139;DHT22;54940;50.842;4.410;2022-08-18T16:55:45;27.70;77.80
68139;DHT22;54940;50.842;4.410;2022-08-18T16:58:11;27.80;76.70
68139;DHT22;54940;50.842;4.410;2022-08-18T17:00:56;27.70;77.60
68139;DHT22;54940;50.842;4.410;2022-08-18T17:03:41;27.70;79.30
68139;DHT22;54940;50.842;4.410;2022-08-18T17:06:25;27.60;77.50
68139;DHT22;54940;50.842;4.410;2022-08-18T17:08:56;27.50;79.30
68139;DHT22;54940;50.842;4.410;2022-08-18T17:11:23;27.40;79.70
68139;DHT22;54940;50.842;4.410;2022-08-18T17:13:53;27.40;78.70
68139;DHT22;54940;50.842;4.410;2022-08-18T17:16:20;27.30;77.90
68139;DHT22;54940;50.842;4.410;2022-08-18T17:18:47;27.30;78.40
68139;DHT22;54940;50.842;4.410;2022-08-18T17:21:16;27.20;78.80
68139;DHT22;54940;50.842;4.410;2022-08-18T17:23:43;27.20;78.00
68139;DHT22;54940;50.842;4.410;2022-08-18T17:26:27;27.10;78.50
68139;DHT22;54940;50.842;4.410;2022-08-18T17:29:02;27.10;77.20
68139;DHT22;54940;50.842;4.410;2022-08-18T17:31:29;27.00;79.60
68139;DHT22;54940;50.842;4.410;2022-08-18T17:34:04;26.90;77.90
68139;DHT22;54940;50.842;4.410;2022-08-18T17:36:45;26.80;78.20
68139;DHT22;54940;50.842;4.410;2022-08-18T17:39:12;26.80;79.20
68139;DHT22;54940;50.842;4.410;2022-08-18T17:41:41;26.70;79.90
68139;DHT22;54940;50.842;4.410;2022-08-18T17:44:26;26.50;80.10
68139;DHT22;54940;50.842;4.410;2022-08-18T17:46:53;26.60;80.30
68139;DHT22;54940;50.842;4.410;2022-08-18T17:49:32;26.50;79.20
68139;DHT22;54940;50.842;4.410;2022-08-18T17:52:21;26.50;78.60
68139;DHT22;54940;50.842;4.410;2022-08-18T17:54:49;26.30;80.80
68139;DHT22;54940;50.842;4.410;2022-08-18T17:57:28;26.30;83.80
68139;DHT22;54940;50.842;4.410;2022-08-18T18:00:08;26.40;81.10
68139;DHT22;54940;50.842;4.410;2022-08-18T18:02:36;26.40;81.60
68139;DHT22;54940;50.842;4.410;2022-08-18T18:05:05;26.30;82.50
68139;DHT22;54940;50.842;4.410;2022-08-18T18:10:23;26.20;83.20
68139;DHT22;54940;50.842;4.410;2022-08-18T18:15:41;26.00;85.10
68139;DHT22;54940;50.842;4.410;2022-08-18T18:21:04;26.00;85.70
68139;DHT22;54940;50.842;4.410;2022-08-18T18:23:33;26.00;85.80
68139;DHT22;54940;50.842;4.410;2022-08-18T18:26:00;25.90;86.00
68139;DHT22;54940;50.842;4.410;2022-08-18T18:28:45;25.90;85.30
68139;DHT22;54940;50.842;4.410;2022-08-18T18:31:25;25.70;85.50
68139;DHT22;54940;50.842;4.410;2022-08-18T18:33:58;25.50;86.60